createdAt,value
2018-08-24T00:01:05.607Z,96889.59
2018-08-24T00:06:00.333Z,96896.14
2018-08-24T00:10:55.286Z,96886.56
2018-08-24T00:15:50.044Z,96866.80
2018-08-24T00:20:44.626Z,96850.69
2018-08-24T00:25:39.329Z,96853.23
2018-08-24T00:30:34.019Z,96852.92
2018-08-24T00:35:28.872Z,96849.20
2018-08-24T00:40:23.951Z,96847.33
2018-08-24T00:45:18.697Z,96840.25
2018-08-24T00:50:13.455Z,96827.85
2018-08-24T00:55:08.199Z,96818.25
2018-08-24T01:00:03.018Z,96807.53
2018-08-24T01:04:57.949Z,96800.36
2018-08-24T01:09:52.672Z,96778.08
2018-08-24T01:14:48.667Z,96760.71
2018-08-24T01:19:45.767Z,96751.42
2018-08-24T01:24:40.520Z,96750.59
2018-08-24T01:42:29.765Z,96745.31
2018-08-24T01:47:33.639Z,96723.25
2018-08-24T01:52:28.354Z,96738.52
2018-08-24T01:57:23.062Z,96753.44
2018-08-24T02:02:17.791Z,96754.78
2018-08-24T02:07:12.595Z,96757.27
2018-08-24T02:12:11.604Z,96755.74
2018-08-24T02:17:10.534Z,96761.91
2018-08-24T02:22:18.886Z,96747.64
2018-08-24T02:27:13.709Z,96746.79
2018-08-24T02:32:09.417Z,96758.41
2018-08-24T02:37:04.239Z,96760.23
2018-08-24T02:41:58.923Z,96751.23
2018-08-24T02:46:53.633Z,96753.75
2018-08-24T02:51:48.359Z,96752.24
2018-08-24T02:56:43.148Z,96751.09
2018-08-24T03:01:37.901Z,96744.92
2018-08-24T03:06:32.779Z,96736.81
2018-08-24T03:11:27.615Z,96743.30
2018-08-24T03:16:22.604Z,96727.35
2018-08-24T03:21:17.316Z,96722.58
2018-08-24T03:26:11.999Z,96731.04
2018-08-24T03:31:06.762Z,96753.77
2018-08-24T03:36:01.538Z,96760.72
2018-08-24T03:40:56.282Z,96755.09
2018-08-24T03:45:51.024Z,96765.55
2018-08-24T03:50:45.687Z,96759.75
2018-08-24T03:55:40.467Z,96772.02
2018-08-24T04:00:35.155Z,96783.47
2018-08-24T04:05:29.853Z,96784.42
2018-08-24T04:10:25.852Z,96798.54
2018-08-24T04:15:20.537Z,96801.86
2018-08-24T04:20:15.510Z,96794.89
2018-08-24T04:25:10.510Z,96804.00
2018-08-24T04:30:05.501Z,96805.33
2018-08-24T04:35:00.285Z,96810.14
2018-08-24T04:39:54.927Z,96812.29
2018-08-24T04:44:49.567Z,96816.27
2018-08-24T04:49:44.747Z,96816.78
2018-08-24T04:54:39.492Z,96813.95
2018-08-24T04:59:34.168Z,96810.47
2018-08-24T05:04:29.779Z,96812.80
2018-08-24T05:09:24.471Z,96818.09
2018-08-24T05:14:19.456Z,96829.03
2018-08-24T05:19:14.265Z,96824.90
2018-08-24T05:24:08.912Z,96826.72
2018-08-24T05:29:03.687Z,96830.41
2018-08-24T05:33:58.553Z,96844.00
2018-08-24T05:38:53.611Z,96836.01
2018-08-24T05:43:48.438Z,96842.48
2018-08-24T05:48:43.190Z,96850.97
2018-08-24T05:53:37.849Z,96856.09
2018-08-24T05:58:32.533Z,96846.14
2018-08-24T06:03:27.281Z,96856.59
2018-08-24T06:08:21.940Z,96848.80
2018-08-24T06:13:19.007Z,96842.02
2018-08-24T06:18:13.855Z,96844.00
2018-08-24T06:23:08.566Z,96846.63
2018-08-24T06:28:03.351Z,96850.95
2018-08-24T06:32:58.051Z,96864.05
2018-08-24T06:37:52.687Z,96859.58
2018-08-24T06:42:47.387Z,96861.70
2018-08-24T06:47:42.128Z,96859.17
2018-08-24T06:52:36.723Z,96860.32
2018-08-24T06:57:31.393Z,96868.75
2018-08-24T07:02:29.030Z,96873.54
2018-08-24T07:07:23.722Z,96872.86
2018-08-24T07:12:18.496Z,96873.92
2018-08-24T07:17:13.277Z,96876.08
2018-08-24T07:22:08.199Z,96878.66
2018-08-24T07:27:02.850Z,96879.90
2018-08-24T07:31:57.534Z,96874.95
2018-08-24T07:36:52.405Z,96874.06
2018-08-24T07:41:47.172Z,96874.80
2018-08-24T07:46:42.086Z,96879.64
2018-08-24T07:51:37.524Z,96885.52
2018-08-24T07:56:32.300Z,96883.61
2018-08-24T08:01:29.160Z,96886.44
2018-08-24T08:06:23.918Z,96894.38
2018-08-24T08:11:18.804Z,96898.23
2018-08-24T08:16:13.444Z,96893.43
2018-08-24T08:21:11.379Z,96896.48
2018-08-24T08:26:06.109Z,96908.58
2018-08-24T08:31:01.063Z,96897.39
2018-08-24T08:35:55.895Z,96899.31
2018-08-24T08:40:50.833Z,96899.80
2018-08-24T08:45:45.681Z,96894.30
2018-08-24T08:50:40.589Z,96895.67
2018-08-24T08:55:35.580Z,96898.98
2018-08-24T09:00:30.691Z,96894.66
2018-08-24T09:05:26.180Z,96901.81
2018-08-24T09:10:22.079Z,96904.98
2018-08-24T09:20:31.055Z,96911.61
2018-08-24T09:25:31.098Z,96909.81
2018-08-24T09:30:30.124Z,96914.74
2018-08-24T09:35:26.674Z,96906.19
2018-08-24T09:40:25.752Z,96891.05
2018-08-24T09:45:20.579Z,96891.95
2018-08-24T09:50:20.674Z,96883.34
2018-08-24T09:55:16.416Z,96872.19
2018-08-24T10:00:11.031Z,96869.10
2018-08-24T10:05:11.248Z,96866.20
2018-08-24T10:10:06.457Z,96858.09
2018-08-24T10:15:01.185Z,96846.30
2018-08-24T10:19:56.021Z,96850.44
2018-08-24T10:24:50.851Z,96845.39
2018-08-24T10:29:45.701Z,96840.13
2018-08-24T10:34:40.404Z,96819.09
2018-08-24T10:39:35.616Z,96817.44
2018-08-24T10:44:30.732Z,96805.45
2018-08-24T10:49:25.509Z,96799.98
2018-08-24T10:54:20.431Z,96790.27
2018-08-24T10:59:15.717Z,96788.38
2018-08-24T11:04:10.771Z,96778.95
2018-08-24T11:11:39.226Z,96784.74
2018-08-24T11:16:34.004Z,96767.63
2018-08-24T11:21:29.799Z,96764.60
2018-08-24T11:26:24.588Z,96759.41
2018-08-24T11:31:21.606Z,96759.44
2018-08-24T11:36:16.737Z,96761.22
2018-08-24T11:41:11.603Z,96759.70
2018-08-24T11:46:07.504Z,96750.70
2018-08-24T11:51:02.203Z,96752.63
2018-08-24T11:55:56.872Z,96756.61
2018-08-24T12:00:51.841Z,96756.30
2018-08-24T12:05:47.353Z,96762.65
2018-08-24T12:10:42.254Z,96755.98
2018-08-24T12:15:37.198Z,96755.86
2018-08-24T12:20:32.298Z,96744.75
2018-08-24T12:25:27.477Z,96738.30
2018-08-24T12:30:22.259Z,96727.57
2018-08-24T12:35:17.103Z,96724.25
2018-08-24T12:40:11.838Z,96719.91
2018-08-24T12:45:06.620Z,96711.87
2018-08-24T12:50:01.328Z,96717.53
2018-08-24T12:54:56.044Z,96709.91
2018-08-24T12:59:50.746Z,96704.03
2018-08-24T13:04:45.429Z,96690.51
2018-08-24T13:09:40.080Z,96688.42
2018-08-24T13:14:34.833Z,96681.78
2018-08-24T13:19:29.533Z,96670.91
2018-08-24T13:24:24.256Z,96656.87
2018-08-24T13:29:18.975Z,96658.65
2018-08-24T13:34:13.607Z,96652.78
2018-08-24T13:39:10.142Z,96646.73
2018-08-24T13:44:06.082Z,96636.85
2018-08-24T13:49:00.809Z,96634.39
2018-08-24T13:53:55.825Z,96619.64
2018-08-24T13:58:50.612Z,96618.64
2018-08-24T14:03:45.428Z,96616.15
2018-08-24T14:08:41.160Z,96610.11
2018-08-24T14:13:35.877Z,96611.08
2018-08-24T14:18:41.891Z,96613.95
2018-08-24T14:23:36.540Z,96616.25
2018-08-24T14:28:31.242Z,96610.19
2018-08-24T14:33:25.996Z,96607.75
2018-08-24T14:38:20.803Z,96598.72
2018-08-24T14:43:15.537Z,96593.61
2018-08-24T14:48:10.157Z,96600.87
2018-08-24T14:53:05.582Z,96605.43
2018-08-24T14:58:00.282Z,96603.02
2018-08-24T15:02:55.123Z,96606.52
2018-08-24T15:07:49.902Z,96611.95
2018-08-24T15:12:44.719Z,96627.21
2018-08-24T15:17:39.506Z,96641.80
2018-08-24T15:22:34.679Z,96651.35
2018-08-24T15:27:29.753Z,96660.07
2018-08-24T15:32:24.476Z,96674.03
2018-08-24T15:37:19.233Z,96683.17
2018-08-24T15:42:13.938Z,96702.36
2018-08-24T15:47:08.705Z,96705.18
2018-08-24T15:52:03.624Z,96698.78
2018-08-24T15:56:58.342Z,96720.22
2018-08-24T16:01:53.031Z,96730.66
2018-08-24T16:06:47.740Z,96734.15
2018-08-24T16:11:42.353Z,96741.56
2018-08-24T16:16:37.164Z,96747.83
2018-08-24T16:21:31.877Z,96764.19
2018-08-24T16:26:26.628Z,96769.92
2018-08-24T16:31:21.301Z,96782.59
2018-08-24T16:36:16.540Z,96799.55
2018-08-24T16:41:11.364Z,96809.87
2018-08-24T16:46:06.331Z,96819.40
2018-08-24T16:51:01.156Z,96810.83
2018-08-24T16:55:55.980Z,96813.63
2018-08-24T17:00:50.993Z,96816.74
2018-08-24T17:05:45.830Z,96808.69
2018-08-24T17:10:40.653Z,96825.44
2018-08-24T17:15:35.871Z,96828.84
2018-08-24T17:20:30.522Z,96831.81
2018-08-24T17:25:26.247Z,96837.66
2018-08-24T17:30:21.113Z,96839.44
2018-08-24T17:35:15.875Z,96842.08
2018-08-24T17:40:10.824Z,96852.16
2018-08-24T17:45:06.273Z,96868.37
2018-08-24T17:50:01.061Z,96876.02
2018-08-24T17:54:56.579Z,96876.34
2018-08-24T17:59:54.976Z,96878.69
2018-08-24T18:04:50.887Z,96879.38
2018-08-24T18:09:45.697Z,96886.95
2018-08-24T18:14:40.529Z,96893.42
2018-08-24T18:19:35.252Z,96903.40
2018-08-24T18:24:30.062Z,96911.91
2018-08-24T18:29:24.896Z,96918.55
2018-08-24T18:39:25.686Z,96943.33
2018-08-24T18:44:20.501Z,96944.34
2018-08-24T18:49:15.171Z,96948.50
2018-08-24T18:54:09.917Z,96960.17
2018-08-24T18:59:04.731Z,96964.16
2018-08-24T19:03:59.467Z,96968.47
2018-08-24T19:08:54.473Z,96972.78
2018-08-24T19:13:49.465Z,96971.78
2018-08-24T19:18:49.135Z,96976.94
2018-08-24T19:23:43.885Z,96987.57
2018-08-24T19:28:43.611Z,96985.09
2018-08-24T19:33:38.379Z,96981.73
2018-08-24T19:38:33.117Z,96989.23
2018-08-24T19:43:27.908Z,96989.23
2018-08-24T19:48:28.069Z,96991.08
2018-08-24T19:53:22.800Z,96989.23
2018-08-24T19:58:22.642Z,96990.20
2018-08-24T20:03:17.462Z,96987.77
2018-08-24T20:08:17.240Z,96987.09
2018-08-24T20:13:12.088Z,96982.28
2018-08-24T20:18:07.051Z,96978.96
2018-08-24T20:23:01.912Z,96977.78
2018-08-24T20:27:56.792Z,96978.80
2018-08-24T20:32:51.573Z,96987.25
2018-08-24T20:37:46.324Z,96981.44
2018-08-24T20:42:41.132Z,96972.45
2018-08-24T20:47:35.907Z,96972.98
2018-08-24T20:52:30.634Z,96979.44
2018-08-24T20:57:25.426Z,96979.10
2018-08-24T21:02:20.466Z,96971.98
2018-08-24T21:07:15.245Z,96958.21
2018-08-24T21:12:10.040Z,96958.68
2018-08-24T21:17:04.930Z,96967.77
2018-08-24T21:21:59.678Z,96969.47
2018-08-24T21:26:54.600Z,96969.83
2018-08-24T21:31:49.681Z,96958.16
2018-08-24T21:36:44.513Z,96959.64
2018-08-24T21:41:39.768Z,96961.48
2018-08-24T21:46:34.637Z,96956.97
2018-08-24T21:51:29.425Z,96962.77
2018-08-24T21:56:24.371Z,96971.09
2018-08-24T22:01:19.180Z,96970.39
2018-08-24T22:06:13.945Z,96972.37
2018-08-24T22:11:08.760Z,96980.34
2018-08-24T22:16:03.925Z,96972.06
2018-08-24T22:20:58.780Z,96963.94
2018-08-24T22:25:53.554Z,96965.92
2018-08-24T22:30:48.383Z,96958.95
2018-08-24T22:35:43.362Z,96942.53
2018-08-24T22:40:38.219Z,96946.14
2018-08-24T22:45:32.906Z,96937.66
2018-08-24T22:50:27.750Z,96942.17
2018-08-24T22:55:22.556Z,96935.20
2018-08-24T23:00:17.370Z,96940.18
2018-08-24T23:05:12.105Z,96940.55
2018-08-24T23:10:07.099Z,96926.28
2018-08-24T23:15:01.880Z,96935.54
2018-08-24T23:19:56.769Z,96935.70
2018-08-24T23:24:51.595Z,96927.22
2018-08-24T23:29:46.400Z,96931.05
2018-08-24T23:34:41.107Z,96930.20
2018-08-24T23:39:35.783Z,96933.70
2018-08-24T23:44:30.588Z,96933.18
2018-08-24T23:49:25.459Z,96931.55
2018-08-24T23:54:20.159Z,96926.52
2018-08-24T23:59:15.120Z,96923.05
